Time;durP1;ratioP1;P1;durP2;ratioP2;P2;SDS_P1;SDS_P2;PMS_P1;PMS_P2;Temp;Humidity;BMP_temperature;BMP_pressure;BME280_temperature;BME280_humidity;BME280_pressure;Samples;Min_cycle;Max_cycle;Signal;HPM_P1;HPM_P2
2022/09/09 11:36:44;;;;;;;4.33;1.83;;;;;;;24.45;61.62;99911.09;5433874;23;20557;-70
2022/09/09 11:39:36;;;;;;;2.90;1.67;;;;;;;25.70;54.84;99917.09;4974953;28;20431;-71
2022/09/09 11:42:08;;;;;;;4.70;1.63;;;;;;;24.58;59.96;99905.09;4975649;28;20431;-69
2022/09/09 11:44:35;;;;;;;4.40;1.50;;;;;;;24.70;56.61;99911.97;4975717;28;20424;-69
2022/09/09 11:47:01;;;;;;;4.40;1.83;;;;;;;24.03;55.14;99906.56;4975387;28;20463;-70
2022/09/09 11:49:31;;;;;;;5.37;1.90;;;;;;;22.82;60.79;99906.63;4975055;28;20450;-70
2022/09/09 11:51:59;;;;;;;3.30;1.50;;;;;;;21.94;63.88;99904.63;4975182;28;20480;-72
2022/09/09 11:54:31;;;;;;;3.63;1.53;;;;;;;21.75;67.39;99908.31;4975553;28;20487;-71
2022/09/09 11:56:58;;;;;;;3.37;1.40;;;;;;;21.63;68.12;99909.56;4979608;28;20595;-70
2022/09/09 11:59:27;;;;;;;4.43;1.33;;;;;;;21.39;68.11;99912.81;4977074;28;20790;-70
2022/09/09 12:01:57;;;;;;;3.73;1.27;;;;;;;20.93;73.37;99923.66;4975035;28;20814;-69
2022/09/09 12:04:31;;;;;;;4.67;1.40;;;;;;;21.81;71.94;99921.44;4975218;28;20466;-70
2022/09/09 12:07:03;;;;;;;2.37;1.20;;;;;;;22.59;68.61;99917.25;4975359;28;20494;-70
2022/09/09 12:09:38;;;;;;;3.00;1.40;;;;;;;22.62;65.93;99917.78;4974774;28;20501;-70
2022/09/09 12:12:23;;;;;;;3.53;1.53;;;;;;;22.19;69.73;99919.44;4975113;28;20431;-70
2022/09/09 12:15:02;;;;;;;3.17;1.40;;;;;;;21.75;71.59;99912.94;4974542;28;20479;-70
2022/09/09 12:17:31;;;;;;;4.80;1.50;;;;;;;21.44;74.56;99907.81;4980802;28;20431;-71
2022/09/09 12:20:07;;;;;;;2.53;1.13;;;;;;;21.57;75.84;99900.09;4975549;28;20538;-71
2022/09/09 12:22:44;;;;;;;3.47;1.30;;;;;;;21.62;71.08;99903.22;4974802;28;20999;-70
2022/09/09 12:25:22;;;;;;;5.57;1.70;;;;;;;21.57;72.52;99900.09;4974823;28;20443;-70
2022/09/09 12:28:02;;;;;;;2.53;1.17;;;;;;;21.40;74.79;99900.88;4974189;28;20427;-71
2022/09/09 12:30:33;;;;;;;3.37;1.70;;;;;;;21.34;71.99;99895.97;4974772;28;20757;-71
2022/09/09 12:33:08;;;;;;;4.10;1.30;;;;;;;21.37;71.47;99899.28;4974571;28;20617;-71
2022/09/09 12:35:36;;;;;;;6.70;1.70;;;;;;;21.41;69.90;99892.53;4974212;28;20494;-69
2022/09/09 12:38:11;;;;;;;3.97;1.20;;;;;;;21.42;73.18;99888.78;4974549;28;20455;-70
2022/09/09 12:40:38;;;;;;;4.17;2.03;;;;;;;21.37;77.05;99903.88;4974807;28;20451;-69
2022/09/09 12:43:18;;;;;;;8.57;1.80;;;;;;;20.39;100.00;99952.47;4973909;28;20476;-70
2022/09/09 12:45:45;;;;;;;8.13;3.97;;;;;;;18.01;100.00;99930.72;4974865;28;20573;-69
2022/09/09 12:48:15;;;;;;;8.43;3.80;;;;;;;17.19;100.00;99924.75;4974679;28;21020;-71
2022/09/09 12:50:47;;;;;;;2.60;1.70;;;;;;;16.80;100.00;99924.19;4975706;28;20191;-70
2022/09/09 12:53:23;;;;;;;4.43;1.95;;;;;;;16.97;100.00;99934.63;4976177;28;20554;-69
2022/09/09 12:55:52;;;;;;;5.28;2.25;;;;;;;16.86;100.00;99930.03;4976511;28;20227;-71
2022/09/09 12:58:20;;;;;;;6.72;2.35;;;;;;;16.87;100.00;99933.63;4975361;28;20211;-70
2022/09/09 13:00:52;;;;;;;4.60;1.83;;;;;;;17.13;100.00;99936.97;4980205;28;20219;-70
2022/09/09 13:03:21;;;;;;;6.88;2.80;;;;;;;17.22;100.00;99936.25;4979923;28;20180;-70
2022/09/09 13:05:48;;;;;;;7.25;2.90;;;;;;;17.39;100.00;99953.06;4984155;28;20298;-70
2022/09/09 13:08:20;;;;;;;4.18;2.78;;;;;;;17.38;100.00;99940.44;4981494;28;20210;-71
2022/09/09 13:10:49;;;;;;;5.70;1.90;;;;;;;17.43;100.00;99922.75;4978535;28;20203;-69
2022/09/09 13:13:18;;;;;;;5.70;2.75;;;;;;;17.86;100.00;99934.72;4978549;28;20204;-70
2022/09/09 13:15:51;;;;;;;5.07;1.95;;;;;;;17.88;100.00;99939.03;4978129;28;20235;-69
2022/09/09 13:18:22;;;;;;;4.05;2.40;;;;;;;17.98;100.00;99955.50;4978453;28;20195;-69
2022/09/09 13:20:49;;;;;;;4.10;1.50;;;;;;;17.80;100.00;99935.22;4981429;28;20188;-70
2022/09/09 13:23:20;;;;;;;3.25;1.50;;;;;;;18.06;100.00;99925.72;4984434;28;20212;-70
2022/09/09 13:25:55;;;;;;;3.22;1.45;;;;;;;18.30;100.00;99927.38;4984382;28;20374;-70
2022/09/09 13:28:25;;;;;;;4.50;1.15;;;;;;;18.46;100.00;99930.53;4981064;28;20203;-70
2022/09/09 13:31:00;;;;;;;3.05;0.93;;;;;;;19.09;100.00;99908.72;4978334;28;20238;-69
2022/09/09 13:33:32;;;;;;;2.30;0.93;;;;;;;19.42;100.00;99909.41;4980197;28;20219;-69
2022/09/09 13:36:00;;;;;;;4.57;1.05;;;;;;;20.01;100.00;99907.69;4978700;28;20239;-70
2022/09/09 13:38:32;;;;;;;2.27;0.90;;;;;;;21.26;88.44;99898.63;4978300;28;20212;-70
2022/09/09 13:41:02;;;;;;;2.17;0.77;;;;;;;22.57;75.11;99903.69;4978048;28;20959;-69
2022/09/09 13:43:31;;;;;;;1.70;0.80;;;;;;;23.64;68.19;99896.97;4980612;28;20435;-70
2022/09/09 13:45:59;;;;;;;2.50;0.80;;;;;;;23.94;64.50;99901.03;4977919;28;20459;-69
2022/09/09 13:48:26;;;;;;;1.80;0.80;;;;;;;26.01;57.85;99897.81;4979787;28;20824;-69
2022/09/09 13:50:58;;;;;;;3.20;1.00;;;;;;;26.74;54.47;99901.94;4961060;28;20455;-70
2022/09/09 13:53:25;;;;;;;1.80;0.70;;;;;;;27.18;50.75;99903.03;4995583;28;21004;-70
2022/09/09 13:55:53;;;;;;;2.30;0.70;;;;;;;26.39;51.15;99906.19;4994643;28;20487;-69
2022/09/09 13:58:21;;;;;;;2.00;0.60;;;;;;;25.33;54.89;99908.44;4980680;28;20438;-72
2022/09/09 14:00:48;;;;;;;2.60;0.73;;;;;;;25.03;56.55;99903.66;4979492;28;20454;-68
2022/09/09 14:03:14;;;;;;;3.63;1.10;;;;;;;24.33;59.35;99916.94;4978793;28;20479;-70
2022/09/09 14:05:42;;;;;;;1.90;0.70;;;;;;;22.92;64.67;99912.88;4979206;28;20463;-70
2022/09/09 14:08:15;;;;;;;2.47;0.93;;;;;;;22.32;70.16;99926.44;4979191;28;20457;-69
2022/09/09 14:10:41;;;;;;;2.10;0.63;;;;;;;21.73;75.76;99925.94;4976708;28;20451;-72
2022/09/09 14:13:11;;;;;;;2.00;0.80;;;;;;;21.36;76.31;99922.19;4977656;28;20450;-69
2022/09/09 14:15:38;;;;;;;3.20;0.90;;;;;;;21.29;78.50;99921.09;4977763;28;20495;-70
2022/09/09 14:18:05;;;;;;;1.90;0.87;;;;;;;20.80;76.36;99931.31;4977674;28;20439;-70
2022/09/09 14:20:32;;;;;;;2.07;1.00;;;;;;;20.54;78.64;99929.16;4977603;28;20447;-71
2022/09/09 14:22:58;;;;;;;3.47;0.70;;;;;;;20.46;79.91;99920.81;4977373;28;20851;-70
2022/09/09 14:25:25;;;;;;;2.77;1.40;;;;;;;20.25;82.61;99934.63;4977255;28;20466;-70
2022/09/09 14:27:52;;;;;;;2.27;1.10;;;;;;;20.56;80.17;99932.66;4976653;28;20454;-70
2022/09/09 14:30:20;;;;;;;3.17;0.80;;;;;;;20.60;81.10;99927.75;4977420;28;20447;-70
2022/09/09 14:32:46;;;;;;;2.13;0.93;;;;;;;20.78;81.03;99936.94;4977719;28;20451;-71
2022/09/09 14:35:13;;;;;;;2.40;1.07;;;;;;;20.79;79.52;99924.13;4977266;28;20498;-71
2022/09/09 14:37:40;;;;;;;2.40;0.90;;;;;;;20.70;79.43;99922.25;4977972;28;20521;-71
2022/09/09 14:40:07;;;;;;;2.03;0.80;;;;;;;20.58;79.53;99913.38;4967544;28;20464;-69
2022/09/09 14:42:34;;;;;;;4.20;1.10;;;;;;;20.34;80.08;99908.28;4948581;29;20530;-70
2022/09/09 14:45:00;;;;;;;2.33;0.70;;;;;;;20.38;81.31;99907.88;4962962;29;20458;-70
2022/09/09 14:47:29;;;;;;;2.53;1.00;;;;;;;20.57;79.83;99900.69;4964359;29;20448;-70
2022/09/09 14:49:55;;;;;;;2.47;1.00;;;;;;;20.52;81.28;99892.03;4964766;29;20456;-70
2022/09/09 14:52:22;;;;;;;2.30;0.73;;;;;;;20.68;79.33;99888.72;4957358;29;20441;-70
2022/09/09 14:54:49;;;;;;;2.60;0.90;;;;;;;20.65;80.66;99886.28;4957061;29;21031;-69
2022/09/09 14:57:16;;;;;;;3.30;0.80;;;;;;;20.62;80.82;99884.69;4957096;29;20464;-69
2022/09/09 14:59:42;;;;;;;1.33;0.73;;;;;;;20.66;80.50;99882.53;4939164;29;20546;-69
2022/09/09 15:02:09;;;;;;;2.17;1.10;;;;;;;20.23;82.54;99870.16;4960926;28;20448;-69
2022/09/09 15:04:37;;;;;;;2.00;1.27;;;;;;;20.39;82.83;99864.97;4963968;28;20443;-70
2022/09/09 15:07:03;;;;;;;1.30;0.90;;;;;;;20.32;80.38;99870.16;4964089;28;20464;-70
2022/09/09 15:09:30;;;;;;;1.80;0.60;;;;;;;20.08;82.09;99867.88;4973908;28;20447;-70
2022/09/09 15:11:56;;;;;;;1.93;0.87;;;;;;;20.02;85.95;99873.91;4973416;28;20444;-70
2022/09/09 15:14:23;;;;;;;1.20;0.60;;;;;;;19.96;86.03;99869.00;4966056;28;20821;-70
2022/09/09 15:16:49;;;;;;;2.43;1.10;;;;;;;20.25;85.44;99879.94;4964530;28;20463;-70
2022/09/09 15:19:16;;;;;;;1.13;0.60;;;;;;;20.98;81.14;99869.34;4970601;28;20475;-70
2022/09/09 15:21:44;;;;;;;2.80;0.80;;;;;;;21.36;75.62;99880.25;4963390;28;20440;-70
2022/09/09 15:24:10;;;;;;;1.40;0.70;;;;;;;22.07;72.24;99879.56;4959819;29;20444;-71
2022/09/09 15:26:39;;;;;;;2.43;1.00;;;;;;;22.36;70.13;99876.59;4966859;28;20466;-70
2022/09/09 15:29:07;;;;;;;2.23;0.83;;;;;;;21.91;72.03;99869.31;4969601;28;20449;-70
2022/09/09 15:31:34;;;;;;;1.17;0.60;;;;;;;22.86;68.97;99870.47;4957176;28;20463;-70
2022/09/09 15:34:02;;;;;;;1.60;0.70;;;;;;;24.20;62.16;99875.31;4968626;28;20447;-70
2022/09/09 15:36:30;;;;;;;3.87;0.70;;;;;;;24.68;59.35;99870.84;4976035;28;20535;-70
2022/09/09 15:38:59;;;;;;;2.10;0.77;;;;;;;26.25;53.98;99882.97;4976084;28;20443;-70
2022/09/09 15:41:25;;;;;;;2.50;0.80;;;;;;;25.47;54.03;99887.53;4966699;28;20452;-71
2022/09/09 15:43:54;;;;;;;3.53;0.80;;;;;;;25.37;55.07;99886.88;4956190;29;20539;-71
2022/09/09 15:46:27;;;;;;;3.60;0.83;;;;;;;24.25;60.37;99885.78;4956579;28;20467;-69
2022/09/09 15:48:55;;;;;;;2.73;0.80;;;;;;;22.59;68.14;99892.53;4956729;29;20880;-70
2022/09/09 15:51:23;;;;;;;1.90;0.70;;;;;;;21.52;75.09;99896.06;4963155;28;20460;-70
2022/09/09 15:53:50;;;;;;;1.40;0.70;;;;;;;21.08;78.96;99899.41;4958783;29;20448;-70
2022/09/09 15:56:18;;;;;;;2.80;0.90;;;;;;;20.73;83.43;99900.94;4958219;28;20558;-70
2022/09/09 15:58:45;;;;;;;2.60;1.07;;;;;;;20.67;84.14;99901.53;4957482;29;20448;-70
2022/09/09 16:01:12;;;;;;;1.57;0.87;;;;;;;20.70;85.16;99897.66;4963174;28;20448;-70
2022/09/09 16:03:41;;;;;;;4.20;1.70;;;;;;;20.41;86.89;99895.78;4963133;28;20477;-69
2022/09/09 16:06:08;;;;;;;3.00;1.17;;;;;;;20.32;88.82;99897.50;4956303;29;20515;-69
2022/09/09 16:08:35;;;;;;;2.10;1.17;;;;;;;20.20;89.80;99899.53;4956311;28;20444;-70
2022/09/09 16:11:06;;;;;;;3.10;1.00;;;;;;;20.12;90.44;99893.03;4964340;28;20451;-71
2022/09/09 16:13:35;;;;;;;3.30;1.10;;;;;;;19.93;91.78;99889.28;4957186;28;20440;-70
2022/09/09 16:16:02;;;;;;;4.60;1.10;;;;;;;20.00;92.32;99895.91;4943796;28;20513;-70
2022/09/09 16:18:34;;;;;;;4.97;1.13;;;;;;;19.85;93.30;99894.59;4974863;28;20530;-71
2022/09/09 16:21:01;;;;;;;5.43;1.00;;;;;;;19.60;95.78;99879.56;4971696;28;20449;-70
2022/09/09 16:23:27;;;;;;;4.13;1.00;;;;;;;19.54;95.85;99877.41;4958598;28;20975;-70
2022/09/09 16:25:55;;;;;;;3.08;1.10;;;;;;;19.50;97.66;99881.41;4969157;28;20490;-70
2022/09/09 16:28:22;;;;;;;1.67;1.00;;;;;;;19.42;98.50;99873.91;4958597;28;20671;-68
2022/09/09 16:30:50;;;;;;;2.07;1.00;;;;;;;19.44;95.21;99879.22;4975322;28;20447;-71
2022/09/09 16:33:17;;;;;;;1.83;0.82;;;;;;;19.42;94.92;99879.38;4970519;28;20436;-70
2022/09/09 16:35:43;;;;;;;2.30;1.20;;;;;;;19.41;95.68;99880.38;4964511;28;20229;-70
2022/09/09 16:38:11;;;;;;;2.37;1.10;;;;;;;19.44;95.30;99899.22;4975329;28;20204;-70
2022/09/09 16:40:37;;;;;;;5.88;1.63;;;;;;;19.27;96.03;99886.25;4961862;28;20459;-71
2022/09/09 16:43:04;;;;;;;4.57;1.42;;;;;;;19.26;95.55;99893.53;4973409;28;20671;-71
2022/09/09 16:45:32;;;;;;;2.25;1.15;;;;;;;19.17;97.66;99891.63;4962924;28;20313;-71
2022/09/09 16:48:01;;;;;;;2.15;1.00;;;;;;;19.18;98.23;99890.66;4962575;28;20208;-72
2022/09/09 16:50:27;;;;;;;4.22;1.45;;;;;;;19.27;98.06;99902.63;4966195;28;20200;-74
2022/09/09 16:52:54;;;;;;;3.08;1.20;;;;;;;19.21;99.46;99909.47;4956165;29;20200;-72
2022/09/09 16:55:21;;;;;;;4.25;1.30;;;;;;;19.19;100.00;99900.56;4955508;28;20233;-73
2022/09/09 16:57:48;;;;;;;2.70;1.02;;;;;;;19.17;100.00;99911.63;4956704;28;20193;-76
2022/09/09 17:00:16;;;;;;;4.63;1.15;;;;;;;19.18;100.00;99909.75;4956311;29;20553;-74
2022/09/09 17:02:42;;;;;;;3.25;1.10;;;;;;;19.23;100.00;99903.88;4956245;29;20690;-72
2022/09/09 17:05:11;;;;;;;2.25;1.13;;;;;;;19.18;100.00;99904.31;4971412;28;20231;-74
2022/09/09 17:07:37;;;;;;;3.20;1.05;;;;;;;19.15;100.00;99920.94;4957193;28;20247;-73
2022/09/09 17:10:04;;;;;;;3.00;1.30;;;;;;;19.02;100.00;99923.03;4957037;29;20230;-74
2022/09/09 17:12:31;;;;;;;4.03;1.48;;;;;;;19.06;100.00;99917.19;4961350;28;20493;-75
2022/09/09 17:14:58;;;;;;;2.53;1.10;;;;;;;19.08;100.00;99920.59;4975235;28;20656;-74
2022/09/09 17:17:26;;;;;;;3.90;1.30;;;;;;;19.03;100.00;99924.75;4976317;28;20204;-73
2022/09/09 17:19:53;;;;;;;2.92;1.30;;;;;;;19.09;100.00;99935.13;4977027;28;20841;-74
2022/09/09 17:22:21;;;;;;;4.47;2.75;;;;;;;18.93;100.00;99933.75;4969660;28;20666;-73
2022/09/09 17:24:47;;;;;;;3.58;1.98;;;;;;;18.96;100.00;99936.19;4961129;28;20265;-73
2022/09/09 17:27:14;;;;;;;2.97;1.52;;;;;;;18.85;100.00;99939.00;4971163;28;20569;-73
2022/09/09 17:29:41;;;;;;;3.30;1.20;;;;;;;18.70;100.00;99930.28;4964096;28;20287;-73
2022/09/09 17:32:09;;;;;;;5.13;1.88;;;;;;;18.72;100.00;99932.84;4947063;28;20200;-73
2022/09/09 17:34:36;;;;;;;3.30;1.40;;;;;;;18.64;100.00;99927.22;4964126;28;20223;-74
